createdAt,value
2019-05-16T00:02:22.559Z,4.04
2019-05-16T00:07:30.088Z,4.92
2019-05-16T00:12:40.018Z,6.02
2019-05-16T00:17:44.693Z,8.82
2019-05-16T00:22:52.148Z,6.93
2019-05-16T00:27:59.600Z,5.77
2019-05-16T00:33:08.319Z,5.58
2019-05-16T00:38:14.082Z,7.61
2019-05-16T00:43:21.470Z,4.85
2019-05-16T00:48:29.030Z,5.48
2019-05-16T00:53:38.262Z,5.65
2019-05-16T00:58:43.859Z,5.52
2019-05-16T01:03:51.496Z,7.29
2019-05-16T01:08:58.976Z,5.00
2019-05-16T01:14:08.288Z,6.97
2019-05-16T01:19:13.534Z,4.19
2019-05-16T01:24:20.955Z,3.40
2019-05-16T01:29:28.545Z,2.81
2019-05-16T01:34:37.771Z,5.28
2019-05-16T01:39:42.920Z,3.74
2019-05-16T01:44:50.347Z,4.06
2019-05-16T01:49:58.108Z,3.81
2019-05-16T01:55:05.233Z,4.90
2019-05-16T02:00:12.765Z,5.15
2019-05-16T02:05:20.159Z,4.34
2019-05-16T02:10:28.410Z,4.35
2019-05-16T02:15:34.529Z,4.59
2019-05-16T02:20:41.986Z,4.60
2019-05-16T02:25:49.347Z,4.31
2019-05-16T02:30:56.858Z,4.44
2019-05-16T02:36:04.224Z,7.06
2019-05-16T02:41:11.630Z,4.32
2019-05-16T02:46:21.928Z,6.98
2019-05-16T02:51:26.043Z,4.45
2019-05-16T02:56:33.489Z,3.84
2019-05-16T03:01:41.114Z,4.14
2019-05-16T03:06:51.112Z,3.87
2019-05-16T03:11:55.419Z,4.67
2019-05-16T03:17:02.836Z,4.88
2019-05-16T03:22:11.707Z,7.98
2019-05-16T03:27:17.192Z,16.23
2019-05-16T03:32:24.731Z,7.79
2019-05-16T03:37:49.507Z,5.36
2019-05-16T03:42:41.637Z,5.77
2019-05-16T03:47:46.016Z,5.51
2019-05-16T03:52:53.540Z,4.37
2019-05-16T03:58:01.459Z,5.19
2019-05-16T04:03:07.928Z,6.07
2019-05-16T04:08:19.567Z,4.95
2019-05-16T04:13:22.473Z,5.62
2019-05-16T04:18:31.862Z,6.29
2019-05-16T04:23:36.814Z,4.67
2019-05-16T04:28:44.207Z,4.97
2019-05-16T04:33:51.936Z,4.81
2019-05-16T04:39:01.560Z,4.30
2019-05-16T04:44:05.783Z,5.34
2019-05-16T04:49:13.209Z,4.43
2019-05-16T04:54:21.535Z,4.50
2019-05-16T04:59:27.583Z,4.56
2019-05-16T05:04:35.027Z,5.78
2019-05-16T05:09:42.450Z,5.69
2019-05-16T05:14:51.085Z,5.11
2019-05-16T05:19:56.841Z,3.54
2019-05-16T05:25:04.170Z,3.39
2019-05-16T05:30:11.696Z,3.40
2019-05-16T05:35:20.612Z,3.98
2019-05-16T05:40:26.072Z,5.23
2019-05-16T05:45:33.540Z,4.17
2019-05-16T05:50:41.076Z,5.02
2019-05-16T05:55:51.051Z,4.44
2019-05-16T06:00:55.443Z,4.49
2019-05-16T06:06:02.977Z,7.51
2019-05-16T06:11:10.402Z,4.44
2019-05-16T06:16:20.147Z,4.48
2019-05-16T06:21:24.789Z,3.96
2019-05-16T06:26:32.223Z,3.70
2019-05-16T06:31:40.685Z,5.72
2019-05-16T06:36:46.600Z,4.15
2019-05-16T06:41:54.086Z,6.24
2019-05-16T06:47:15.755Z,4.67
2019-05-16T06:52:10.405Z,4.92
2019-05-16T06:57:15.572Z,6.58
2019-05-16T07:02:30.266Z,7.55
2019-05-16T07:07:30.810Z,3.19
2019-05-16T07:12:36.919Z,5.61
2019-05-16T07:17:44.319Z,4.07
2019-05-16T07:22:51.744Z,3.66
2019-05-16T07:28:00.696Z,4.94
2019-05-16T07:33:06.190Z,3.77
2019-05-16T07:38:13.561Z,6.15
2019-05-16T07:43:20.967Z,3.42
2019-05-16T07:48:31.238Z,5.00
2019-05-16T07:53:35.364Z,3.77
2019-05-16T07:58:42.765Z,4.61
2019-05-16T08:03:50.945Z,3.93
2019-05-16T08:08:57.081Z,4.99
2019-05-16T08:14:04.457Z,3.58
2019-05-16T08:19:11.833Z,5.80
2019-05-16T08:24:20.551Z,3.41
2019-05-16T08:29:26.236Z,4.64
2019-05-16T08:34:33.815Z,3.55
2019-05-16T08:39:41.468Z,3.94
2019-05-16T08:44:51.594Z,3.56
2019-05-16T08:49:55.689Z,4.24
2019-05-16T08:55:03.654Z,3.52
2019-05-16T09:00:14.547Z,4.61
2019-05-16T09:05:16.959Z,3.75
2019-05-16T09:10:50.022Z,3.74
2019-05-16T09:15:31.446Z,4.32
2019-05-16T09:20:42.725Z,5.79
2019-05-16T09:25:48.448Z,4.62
2019-05-16T09:30:52.842Z,4.07
2019-05-16T09:36:00.286Z,4.48
2019-05-16T09:41:08.007Z,4.43
2019-05-16T09:46:16.969Z,4.75
2019-05-16T09:51:21.591Z,2.82
2019-05-16T09:56:29.246Z,2.58
2019-05-16T10:01:37.018Z,5.21
2019-05-16T10:06:43.504Z,6.20
2019-05-16T10:12:05.274Z,4.16
2019-05-16T10:16:58.044Z,4.62
2019-05-16T10:22:07.323Z,4.54
2019-05-16T10:27:12.429Z,4.27
2019-05-16T10:32:19.838Z,3.00
2019-05-16T10:37:27.452Z,5.94
2019-05-16T10:42:37.680Z,4.57
2019-05-16T10:47:41.839Z,6.73
2019-05-16T10:53:12.904Z,3.64
2019-05-16T10:57:56.730Z,4.34
2019-05-16T11:03:03.288Z,10.05
2019-05-16T11:08:10.824Z,4.45
2019-05-16T11:13:20.230Z,4.52
2019-05-16T11:18:27.251Z,3.95
2019-05-16T11:23:32.067Z,4.99
2019-05-16T11:28:39.541Z,6.00
2019-05-16T11:33:47.715Z,3.75
2019-05-16T11:38:58.584Z,4.56
2019-05-16T11:44:00.914Z,6.40
2019-05-16T11:49:08.300Z,3.86
2019-05-16T11:54:15.776Z,4.97
2019-05-16T11:59:23.225Z,6.13
2019-05-16T12:04:30.697Z,5.43
2019-05-16T12:09:47.188Z,4.35
2019-05-16T12:14:45.102Z,4.39
2019-05-16T12:19:52.854Z,3.95
2019-05-16T12:24:59.517Z,3.41
2019-05-16T12:30:13.070Z,5.32
2019-05-16T12:35:13.938Z,5.35
2019-05-16T12:40:21.363Z,7.42
2019-05-16T12:45:28.792Z,4.04
2019-05-16T12:50:38.869Z,5.35
2019-05-16T12:55:47.742Z,6.50
2019-05-16T13:00:44.046Z,3.50
2019-05-16T13:05:50.211Z,5.78
2019-05-16T13:10:57.961Z,5.04
2019-05-16T13:16:08.058Z,4.90
2019-05-16T13:21:08.349Z,6.75
2019-05-16T13:26:08.729Z,6.23
2019-05-16T13:31:07.782Z,7.61
2019-05-16T13:36:13.084Z,6.16
2019-05-16T13:41:20.478Z,8.89
2019-05-16T13:46:27.884Z,7.81
2019-05-16T13:51:40.251Z,7.99
2019-05-16T13:56:40.562Z,9.81
2019-05-16T14:01:38.072Z,7.93
2019-05-16T14:06:47.565Z,11.50
2019-05-16T14:11:52.646Z,8.96
2019-05-16T14:17:00.834Z,7.54
2019-05-16T14:22:11.407Z,8.59
2019-05-16T14:27:08.852Z,11.76
2019-05-16T14:32:20.128Z,7.80
2019-05-16T14:37:26.821Z,5.85
2019-05-16T14:42:33.491Z,5.76
2019-05-16T14:47:40.908Z,7.72
2019-05-16T14:52:48.332Z,5.61
2019-05-16T14:57:56.739Z,5.30
2019-05-16T15:03:02.879Z,6.01
2019-05-16T15:08:10.817Z,6.34
2019-05-16T15:13:18.232Z,6.05
2019-05-16T15:18:27.794Z,5.54
2019-05-16T15:23:32.634Z,5.39
2019-05-16T15:28:40.357Z,5.47
2019-05-16T15:33:47.776Z,5.97
2019-05-16T15:38:56.693Z,6.39
2019-05-16T15:44:02.196Z,6.07
2019-05-16T15:49:10.523Z,5.14
2019-05-16T15:54:17.951Z,5.48
2019-05-16T15:59:23.854Z,6.79
2019-05-16T16:04:31.362Z,4.71
2019-05-16T16:09:38.919Z,5.56
2019-05-16T16:14:46.908Z,5.46
2019-05-16T16:19:54.287Z,5.21
2019-05-16T16:25:01.810Z,4.66
2019-05-16T16:30:09.295Z,7.52
2019-05-16T16:35:17.320Z,5.67
2019-05-16T16:40:26.548Z,5.19
2019-05-16T16:45:30.854Z,5.61
2019-05-16T16:50:38.334Z,7.40
2019-05-16T16:55:47.597Z,7.90
2019-05-16T17:00:52.712Z,8.36
2019-05-16T17:06:00.167Z,10.56
2019-05-16T17:11:07.888Z,8.44
2019-05-16T17:16:22.993Z,8.73
2019-05-16T17:21:22.379Z,8.35
2019-05-16T17:26:29.837Z,7.21
2019-05-16T17:31:37.413Z,6.36
2019-05-16T17:36:46.646Z,5.59
2019-05-16T17:41:54.785Z,6.56
2019-05-16T17:46:58.861Z,4.90
2019-05-16T17:52:07.811Z,5.69
2019-05-16T17:57:17.046Z,5.57
2019-05-16T18:02:22.570Z,5.44
2019-05-16T18:07:29.939Z,6.74
2019-05-16T18:12:37.461Z,5.05
2019-05-16T18:17:46.678Z,5.57
2019-05-16T18:22:51.949Z,5.42
2019-05-16T18:27:59.382Z,5.75
2019-05-16T18:33:07.497Z,4.07
2019-05-16T18:38:13.943Z,4.54
2019-05-16T18:43:21.553Z,8.17
2019-05-16T18:48:28.895Z,7.51
2019-05-16T18:53:37.503Z,7.02
2019-05-16T18:58:43.419Z,6.88
2019-05-16T19:03:50.937Z,7.00
2019-05-16T19:08:58.565Z,7.82
2019-05-16T19:19:11.210Z,7.19
2019-05-16T19:24:08.680Z,8.13
2019-05-16T19:29:17.379Z,7.37
2019-05-16T19:34:23.157Z,10.56
2019-05-16T19:39:30.682Z,10.86
2019-05-16T19:44:38.849Z,9.79
2019-05-16T19:49:46.495Z,8.94
2019-05-16T19:54:56.305Z,10.97
2019-05-16T20:00:01.130Z,11.12
2019-05-16T20:05:08.802Z,12.89
2019-05-16T20:10:16.877Z,11.71
2019-05-16T20:15:23.660Z,11.94
2019-05-16T20:20:31.125Z,13.14
2019-05-16T20:25:38.762Z,13.59
2019-05-16T20:30:47.594Z,14.43
2019-05-16T20:35:53.366Z,15.81
2019-05-16T20:41:00.957Z,17.23
2019-05-16T20:46:08.502Z,18.06
2019-05-16T20:51:16.920Z,19.93
2019-05-16T20:56:23.587Z,21.06
2019-05-16T21:01:30.999Z,18.52
2019-05-16T21:06:38.391Z,22.35
2019-05-16T21:11:46.846Z,22.50
2019-05-16T21:16:53.029Z,23.06
2019-05-16T21:22:00.692Z,22.99
2019-05-16T21:27:08.215Z,23.14
2019-05-16T21:32:16.267Z,23.72
2019-05-16T21:37:22.598Z,23.54
2019-05-16T21:42:31.031Z,22.30
2019-05-16T21:47:38.531Z,22.69
2019-05-16T21:52:47.032Z,22.15
2019-05-16T21:57:53.152Z,20.00
2019-05-16T22:03:00.651Z,21.87
2019-05-16T22:08:08.113Z,22.57
2019-05-16T22:13:15.576Z,22.63
2019-05-16T22:18:23.018Z,22.49
2019-05-16T22:23:30.706Z,21.94
2019-05-16T22:28:38.207Z,20.55
2019-05-16T22:33:46.902Z,21.52
2019-05-16T22:38:52.570Z,22.63
2019-05-16T22:44:00.053Z,22.02
2019-05-16T22:49:07.710Z,21.85
2019-05-16T22:54:17.045Z,21.88
2019-05-16T22:59:21.891Z,22.00
2019-05-16T23:04:29.308Z,21.14
2019-05-16T23:09:36.738Z,20.64
2019-05-16T23:14:46.189Z,22.05
2019-05-16T23:19:52.496Z,22.25
2019-05-16T23:24:59.850Z,22.72
2019-05-16T23:30:07.510Z,21.33
2019-05-16T23:35:14.771Z,22.73
2019-05-16T23:40:22.179Z,21.93
2019-05-16T23:45:29.648Z,21.82
2019-05-16T23:50:37.279Z,21.54
2019-05-16T23:55:46.756Z,21.65
